Time;durP1;ratioP1;P1;durP2;ratioP2;P2;SDS_P1;SDS_P2;PMS_P1;PMS_P2;Temp;Humidity;BMP_temperature;BMP_pressure;BME280_temperature;BME280_humidity;BME280_pressure;Samples;Min_cycle;Max_cycle;Signal;HPM_P1;HPM_P2
2022/05/14 00:01:36;;;;;;;21.40;4.28;;;11.40;99.90;;;;;;5015498;28;20052;-74
2022/05/14 00:04:04;;;;;;;26.50;4.30;;;11.40;99.90;;;;;;5013974;28;20045;-73
2022/05/14 00:06:32;;;;;;;16.23;3.90;;;11.30;99.90;;;;;;5015294;28;20038;-74
2022/05/14 00:09:04;;;;;;;;;;;11.40;99.90;;;;;;5015702;28;20042;-74
2022/05/14 00:14:20;;;;;;;22.40;4.18;;;11.30;99.90;;;;;;5015514;28;20050;-73
2022/05/14 00:16:47;;;;;;;;;;;11.30;99.90;;;;;;4982170;28;20381;-73
2022/05/14 00:19:15;;;;;;;17.92;3.72;;;11.30;99.90;;;;;;5013991;28;19928;-73
2022/05/14 00:21:43;;;;;;;24.77;4.38;;;11.20;99.90;;;;;;5015098;28;20057;-73
2022/05/14 00:24:11;;;;;;;21.88;4.10;;;11.20;99.90;;;;;;5013930;28;20058;-73
2022/05/14 00:26:39;;;;;;;20.17;4.18;;;11.20;99.90;;;;;;5015304;28;20041;-73
2022/05/14 00:29:08;;;;;;;22.45;4.18;;;11.20;99.90;;;;;;5015372;28;20045;-73
2022/05/14 00:31:36;;;;;;;24.08;4.22;;;11.10;99.90;;;;;;5013998;28;20461;-73
2022/05/14 00:34:04;;;;;;;23.25;3.92;;;11.10;99.90;;;;;;5014976;28;20054;-73
2022/05/14 00:36:33;;;;;;;22.35;4.35;;;11.00;99.90;;;;;;5014900;28;20046;-73
2022/05/14 00:39:01;;;;;;;23.30;4.30;;;11.00;99.90;;;;;;4996659;28;20049;-73
2022/05/14 00:41:28;;;;;;;24.67;4.50;;;11.00;99.90;;;;;;5015043;28;20049;-73
2022/05/14 00:43:58;;;;;;;20.83;3.75;;;11.00;99.90;;;;;;5015000;28;20045;-73
2022/05/14 00:46:55;;;;;;;25.45;3.95;;;11.00;99.90;;;;;;4996963;28;20046;-73
2022/05/14 00:49:24;;;;;;;18.63;4.57;;;11.00;99.90;;;;;;5015204;28;20049;-73
2022/05/14 00:51:52;;;;;;;24.80;4.38;;;11.00;99.90;;;;;;4996944;28;20049;-73
2022/05/14 00:54:27;;;;;;;20.17;4.40;;;11.00;99.90;;;;;;4997625;28;20052;-73
2022/05/14 00:57:02;;;;;;;23.02;4.40;;;10.90;99.90;;;;;;4997776;28;20045;-73
2022/05/14 00:59:30;;;;;;;24.75;4.93;;;10.90;99.90;;;;;;4996495;28;20377;-73
2022/05/14 01:01:58;;;;;;;27.10;4.68;;;10.80;99.90;;;;;;4998040;28;20049;-73
2022/05/14 01:04:29;;;;;;;24.35;4.43;;;10.80;99.90;;;;;;4996504;28;20042;-73
2022/05/14 01:07:08;;;;;;;25.00;4.30;;;10.70;99.90;;;;;;4997585;28;20453;-73
2022/05/14 01:09:42;;;;;;;23.52;4.40;;;10.80;99.90;;;;;;4997441;28;20050;-73
2022/05/14 01:12:11;;;;;;;24.67;4.38;;;10.80;99.90;;;;;;5013618;28;20045;-73
2022/05/14 01:14:39;;;;;;;22.42;4.35;;;10.80;99.90;;;;;;5000021;28;20046;-73
2022/05/14 01:17:07;;;;;;;23.10;4.60;;;10.70;99.90;;;;;;5001616;28;20069;-73
2022/05/14 01:19:36;;;;;;;23.48;4.72;;;10.70;99.90;;;;;;5000297;28;20361;-73
2022/05/14 01:22:40;;;;;;;26.10;4.15;;;10.70;99.90;;;;;;5018343;28;20057;-73
2022/05/14 01:28:10;;;;;;;21.80;4.68;;;10.60;99.90;;;;;;5018566;28;20041;-73
2022/05/14 01:31:05;;;;;;;21.45;4.22;;;10.60;99.90;;;;;;5001572;28;20053;-73
2022/05/14 01:33:34;;;;;;;22.08;4.57;;;10.50;99.90;;;;;;4999850;28;20069;-73
2022/05/14 01:36:07;;;;;;;20.88;4.32;;;10.50;99.90;;;;;;5001108;28;20050;-73
2022/05/14 01:38:37;;;;;;;30.20;4.45;;;10.50;99.90;;;;;;4999890;28;20065;-73
2022/05/14 01:41:04;;;;;;;24.58;4.22;;;10.50;99.90;;;;;;4984615;28;20045;-73
2022/05/14 01:43:32;;;;;;;33.80;4.60;;;10.50;99.90;;;;;;5000928;28;20479;-73
2022/05/14 01:46:00;;;;;;;24.77;4.57;;;10.40;99.90;;;;;;4999869;28;20389;-73
2022/05/14 01:48:29;;;;;;;29.55;4.50;;;10.40;99.90;;;;;;5017857;28;20050;-73
2022/05/14 01:51:00;;;;;;;29.08;4.80;;;10.40;99.90;;;;;;4999846;28;20053;-73
2022/05/14 01:53:27;;;;;;;24.27;4.25;;;10.40;99.90;;;;;;5017839;28;20457;-73
2022/05/14 01:55:55;;;;;;;26.25;4.68;;;10.30;99.90;;;;;;5000921;28;20163;-73
2022/05/14 01:58:38;;;;;;;;;;;10.30;99.90;;;;;;5017168;28;20052;-73
2022/05/14 02:01:13;;;;;;;23.60;5.28;;;10.30;99.90;;;;;;5000588;28;19931;-73
2022/05/14 02:03:44;;;;;;;22.33;4.55;;;10.30;99.90;;;;;;5017710;28;20057;-73
2022/05/14 02:06:12;;;;;;;21.25;3.88;;;10.30;99.90;;;;;;4999470;28;20511;-73
2022/05/14 02:08:41;;;;;;;21.15;4.90;;;10.20;99.90;;;;;;5017614;28;20429;-73
2022/05/14 02:11:08;;;;;;;;;;;10.20;99.90;;;;;;5016918;28;20049;-73
2022/05/14 02:13:38;;;;;;;23.55;4.60;;;10.10;99.90;;;;;;5000574;28;19921;-73
2022/05/14 02:16:06;;;;;;;23.13;4.38;;;10.10;99.90;;;;;;5000834;28;20057;-73
2022/05/14 02:18:36;;;;;;;29.48;4.55;;;10.00;99.90;;;;;;4999085;28;20049;-73
2022/05/14 02:21:06;;;;;;;29.27;5.57;;;10.00;99.90;;;;;;5000550;28;20038;-73
2022/05/14 02:23:37;;;;;;;25.75;4.95;;;10.00;99.90;;;;;;5017392;28;20045;-73
2022/05/14 02:26:08;;;;;;;28.25;4.70;;;9.90;99.90;;;;;;4997966;28;20050;-73
2022/05/14 02:28:37;;;;;;;26.00;5.20;;;9.90;99.90;;;;;;4999894;28;20049;-73
2022/05/14 02:31:05;;;;;;;18.30;4.60;;;9.90;99.90;;;;;;4998975;28;20052;-73
2022/05/14 02:33:33;;;;;;;27.08;5.22;;;9.90;99.90;;;;;;5000383;28;20061;-73
2022/05/14 02:36:02;;;;;;;25.98;5.05;;;9.90;99.90;;;;;;5017056;28;20385;-73
2022/05/14 02:38:31;;;;;;;28.17;5.20;;;9.90;99.90;;;;;;4982829;28;20053;-73
2022/05/14 02:40:59;;;;;;;30.10;4.88;;;9.90;99.90;;;;;;5000044;28;20468;-73
2022/05/14 02:43:27;;;;;;;21.17;4.13;;;9.90;99.90;;;;;;5016777;28;20161;-73
2022/05/14 02:45:54;;;;;;;25.98;5.10;;;9.90;99.90;;;;;;4998735;28;20479;-73
2022/05/14 02:48:22;;;;;;;26.98;4.57;;;9.90;99.90;;;;;;4999855;28;20038;-73
2022/05/14 02:50:50;;;;;;;24.98;4.75;;;9.80;99.90;;;;;;4998652;28;20053;-73
2022/05/14 02:53:18;;;;;;;27.30;4.75;;;9.80;99.90;;;;;;4999766;28;20053;-73
2022/05/14 02:55:45;;;;;;;25.00;4.55;;;9.80;99.90;;;;;;4999525;28;20050;-73
2022/05/14 02:59:06;;;;;;;26.15;4.85;;;9.80;99.90;;;;;;4998438;28;20360;-73
2022/05/14 03:01:02;;;;;;;30.58;4.70;;;9.80;99.90;;;;;;4999333;28;20049;-74
2022/05/14 03:03:29;;;;;;;27.00;5.10;;;9.70;99.90;;;;;;5016626;28;20049;-73
2022/05/14 03:05:57;;;;;;;22.48;5.35;;;9.70;99.90;;;;;;5015359;28;20042;-73
2022/05/14 03:08:26;;;;;;;23.80;4.50;;;9.60;99.90;;;;;;4999281;28;20053;-73
2022/05/14 03:10:54;;;;;;;32.58;5.00;;;9.60;99.90;;;;;;4998518;28;20046;-73
2022/05/14 03:13:22;;;;;;;24.52;4.88;;;9.50;99.90;;;;;;4999297;28;20053;-73
2022/05/14 03:15:50;;;;;;;32.33;5.43;;;9.50;99.90;;;;;;4999089;28;20491;-73
2022/05/14 03:18:18;;;;;;;27.85;5.10;;;9.40;99.90;;;;;;5015162;28;20056;-73
2022/05/14 03:20:46;;;;;;;34.75;5.65;;;9.40;99.90;;;;;;5016067;28;20365;-73
2022/05/14 03:23:15;;;;;;;26.98;4.72;;;9.40;99.90;;;;;;5016050;28;20056;-73
2022/05/14 03:25:42;;;;;;;32.45;5.78;;;9.40;99.90;;;;;;4998106;28;20365;-73
2022/05/14 03:28:10;;;;;;;21.70;4.80;;;9.40;99.90;;;;;;4998990;28;20038;-73
2022/05/14 03:30:38;;;;;;;23.50;4.47;;;9.30;99.90;;;;;;4998874;28;20046;-73
2022/05/14 03:33:05;;;;;;;30.52;5.10;;;9.30;99.90;;;;;;4997842;28;20042;-74
2022/05/14 03:35:34;;;;;;;21.63;4.60;;;9.30;99.90;;;;;;4998897;28;20046;-73
2022/05/14 03:38:02;;;;;;;;;;;9.30;99.90;;;;;;4998198;28;20396;-73
2022/05/14 03:40:29;;;;;;;20.77;4.45;;;9.20;99.90;;;;;;4998635;28;19921;-73
2022/05/14 03:42:57;;;;;;;19.15;4.70;;;9.20;99.90;;;;;;5015818;28;20483;-73
2022/05/14 03:45:25;;;;;;;28.48;5.15;;;9.10;99.90;;;;;;4997564;28;20385;-73
2022/05/14 03:47:53;;;;;;;;;;;9.20;99.90;;;;;;5016003;28;20061;-73
2022/05/14 03:50:20;;;;;;;29.88;4.60;;;9.10;99.90;;;;;;5015955;28;19921;-73
2022/05/14 03:52:48;;;;;;;;;;;9.10;99.90;;;;;;5014922;28;20053;-73
2022/05/14 03:55:16;;;;;;;19.33;4.35;;;9.00;99.90;;;;;;5015825;28;19932;-73
2022/05/14 03:57:45;;;;;;;28.42;4.65;;;9.00;99.90;;;;;;4981153;28;20049;-73
2022/05/14 04:00:13;;;;;;;23.48;4.70;;;8.90;99.90;;;;;;4998367;28;20121;-73
2022/05/14 04:02:43;;;;;;;31.30;5.60;;;9.00;99.90;;;;;;4998234;28;20389;-73
2022/05/14 04:05:11;;;;;;;22.92;4.90;;;8.90;99.90;;;;;;4997349;28;20052;-73
2022/05/14 04:07:43;;;;;;;27.90;5.25;;;9.00;99.90;;;;;;4998263;28;20049;-73
2022/05/14 04:10:16;;;;;;;25.60;5.18;;;9.00;99.90;;;;;;4966275;28;20049;-73
2022/05/14 04:12:44;;;;;;;24.50;5.05;;;9.00;99.90;;;;;;4997330;28;20056;-73
2022/05/14 04:15:12;;;;;;;;;;;9.00;99.90;;;;;;4998724;28;20054;-73
2022/05/14 04:17:41;;;;;;;20.35;4.65;;;9.00;99.90;;;;;;4997582;28;20194;-73
2022/05/14 04:20:09;;;;;;;;;;;9.00;99.90;;;;;;4998447;28;20415;-73
2022/05/14 04:22:37;;;;;;;;;;;9.00;99.90;;;;;;4998515;28;19921;-73
2022/05/14 04:25:06;;;;;;;28.67;5.05;;;9.00;99.90;;;;;;4996802;28;20371;-73
2022/05/14 04:27:36;;;;;;;31.08;6.00;;;9.00;99.90;;;;;;4997854;28;20045;-72
2022/05/14 04:30:04;;;;;;;24.30;5.18;;;9.10;99.90;;;;;;4997669;28;20049;-72
2022/05/14 04:32:33;;;;;;;26.98;5.68;;;9.10;99.90;;;;;;4996839;28;20050;-72
2022/05/14 04:35:01;;;;;;;;;;;9.10;99.90;;;;;;4998994;28;20054;-72
2022/05/14 04:37:29;;;;;;;21.10;5.03;;;9.20;99.90;;;;;;4997426;28;19921;-72
2022/05/14 04:39:56;;;;;;;22.15;5.00;;;9.20;99.90;;;;;;4998513;28;20061;-72
2022/05/14 04:42:24;;;;;;;33.08;5.38;;;9.30;99.90;;;;;;4997861;28;20046;-72
2022/05/14 04:44:52;;;;;;;18.80;4.47;;;9.40;99.90;;;;;;4997277;28;20476;-72
2022/05/14 04:47:20;;;;;;;;;;;9.40;99.90;;;;;;4998225;28;20046;-72
2022/05/14 04:49:48;;;;;;;33.55;5.55;;;9.50;99.90;;;;;;4997307;28;20351;-72
2022/05/14 04:52:18;;;;;;;32.55;5.68;;;9.60;99.90;;;;;;4996785;28;20050;-71
2022/05/14 04:54:45;;;;;;;28.15;5.22;;;9.60;99.90;;;;;;4997779;28;20046;-72
2022/05/14 04:57:13;;;;;;;25.67;4.55;;;9.70;99.90;;;;;;4997683;28;20063;-72
2022/05/14 04:59:41;;;;;;;26.08;5.00;;;9.80;99.90;;;;;;4997267;28;20037;-72
2022/05/14 05:04:57;;;;;;;23.02;5.07;;;9.80;99.90;;;;;;4996768;28;20038;-72
2022/05/14 05:07:25;;;;;;;24.85;5.28;;;9.90;99.90;;;;;;5014682;28;20046;-72
2022/05/14 05:09:53;;;;;;;31.80;5.75;;;9.90;99.90;;;;;;5015068;28;20337;-72
2022/05/14 05:12:21;;;;;;;24.33;4.75;;;10.00;99.90;;;;;;5014070;28;20465;-71
2022/05/14 05:14:54;;;;;;;23.65;5.20;;;10.10;99.90;;;;;;5014643;28;20058;-72
2022/05/14 05:17:22;;;;;;;26.23;5.50;;;10.00;99.90;;;;;;5014205;28;20050;-72
2022/05/14 05:19:49;;;;;;;35.85;5.85;;;10.10;99.90;;;;;;5014539;28;20057;-72
2022/05/14 05:22:17;;;;;;;29.10;5.38;;;10.10;99.90;;;;;;5014530;28;20053;-72
2022/05/14 05:24:46;;;;;;;25.63;4.93;;;10.20;99.90;;;;;;5013974;28;20050;-72
2022/05/14 05:27:13;;;;;;;34.05;5.22;;;10.20;99.90;;;;;;5015233;28;20064;-72
2022/05/14 05:29:41;;;;;;;32.33;5.32;;;10.20;99.90;;;;;;5014486;28;20042;-72
2022/05/14 05:32:08;;;;;;;31.70;5.57;;;10.30;99.90;;;;;;5013600;28;20488;-72
2022/05/14 05:34:36;;;;;;;29.35;5.95;;;10.30;99.90;;;;;;5014447;28;20050;-72
2022/05/14 05:37:04;;;;;;;28.05;5.68;;;10.40;99.90;;;;;;5014619;28;20053;-72
2022/05/14 05:39:31;;;;;;;25.02;5.07;;;10.40;99.90;;;;;;5013645;28;20456;-72
2022/05/14 05:41:59;;;;;;;34.65;5.43;;;10.50;99.90;;;;;;5014767;28;20050;-72
2022/05/14 05:44:27;;;;;;;30.60;5.60;;;10.50;99.90;;;;;;5013941;28;20050;-72
2022/05/14 05:46:55;;;;;;;21.67;4.72;;;10.60;99.90;;;;;;5014916;28;20441;-72
2022/05/14 05:49:22;;;;;;;27.90;5.22;;;10.70;99.90;;;;;;5014502;28;20050;-72
2022/05/14 05:51:50;;;;;;;30.88;5.78;;;10.70;99.90;;;;;;5013629;28;20053;-72
2022/05/14 05:57:03;;;;;;;28.13;5.20;;;10.90;99.90;;;;;;5014864;28;20049;-72
2022/05/14 05:59:32;;;;;;;22.00;5.80;;;11.00;99.90;;;;;;5013370;28;20376;-72
2022/05/14 06:02:00;;;;;;;23.23;5.88;;;11.10;99.90;;;;;;5017582;28;20049;-72
2022/05/14 06:04:28;;;;;;;28.00;5.38;;;11.20;99.90;;;;;;5017129;28;20046;-72
2022/05/14 06:06:56;;;;;;;22.85;5.20;;;11.20;99.90;;;;;;5018113;28;20050;-72
2022/05/14 06:09:26;;;;;;;29.33;5.93;;;11.20;99.90;;;;;;5000786;28;20053;-72
2022/05/14 06:11:54;;;;;;;31.90;5.75;;;11.30;99.90;;;;;;5017201;28;20065;-71
2022/05/14 06:14:21;;;;;;;26.42;5.55;;;11.40;99.90;;;;;;5017398;28;20045;-72
2022/05/14 06:16:49;;;;;;;26.50;5.97;;;11.40;99.90;;;;;;5018192;28;20050;-72
2022/05/14 06:19:17;;;;;;;28.67;5.90;;;11.40;99.90;;;;;;5016690;28;20053;-72
2022/05/14 06:21:45;;;;;;;30.60;6.68;;;11.50;99.90;;;;;;5018024;28;20381;-72
2022/05/14 06:24:12;;;;;;;30.77;5.68;;;11.50;99.90;;;;;;5016166;28;20376;-72
2022/05/14 06:26:40;;;;;;;34.28;6.43;;;11.60;99.90;;;;;;5017886;28;20449;-72
2022/05/14 06:29:09;;;;;;;33.33;6.30;;;11.60;99.90;;;;;;5017249;28;20400;-72
2022/05/14 06:31:36;;;;;;;37.13;7.43;;;11.70;99.90;;;;;;5016275;28;20057;-72
2022/05/14 06:34:05;;;;;;;32.92;6.20;;;11.80;99.90;;;;;;5000195;28;20061;-72
2022/05/14 06:36:33;;;;;;;34.45;6.22;;;11.80;99.90;;;;;;5017016;28;20049;-72
2022/05/14 06:39:02;;;;;;;38.30;6.50;;;11.90;99.90;;;;;;4999022;28;20049;-72
2022/05/14 06:41:30;;;;;;;;;;;12.00;99.90;;;;;;5017437;28;20050;-72
2022/05/14 06:43:57;;;;;;;38.13;6.50;;;12.00;99.90;;;;;;5017195;28;20213;-72
2022/05/14 06:46:25;;;;;;;31.77;6.53;;;12.10;99.90;;;;;;5016685;28;20053;-72
2022/05/14 06:48:53;;;;;;;34.65;6.68;;;12.20;99.90;;;;;;5016853;28;20053;-72
2022/05/14 06:51:24;;;;;;;37.78;7.22;;;12.30;99.90;;;;;;4998752;28;20049;-72
2022/05/14 06:53:54;;;;;;;37.85;7.38;;;12.40;99.90;;;;;;5016894;28;20049;-72
2022/05/14 06:56:23;;;;;;;30.73;7.00;;;12.50;99.90;;;;;;5016640;28;20046;-72
2022/05/14 06:58:51;;;;;;;35.05;7.30;;;12.60;99.90;;;;;;5015867;28;20042;-72
2022/05/14 07:01:19;;;;;;;;;;;12.70;99.90;;;;;;5017810;28;20341;-72
2022/05/14 07:06:38;;;;;;;29.30;6.63;;;12.80;99.90;;;;;;5017108;28;20054;-72
2022/05/14 07:09:10;;;;;;;38.17;7.65;;;12.90;99.90;;;;;;5017092;28;20057;-72
2022/05/14 07:11:40;;;;;;;31.70;6.97;;;12.90;99.90;;;;;;5015337;28;20038;-72
2022/05/14 07:14:09;;;;;;;36.22;7.65;;;13.00;99.90;;;;;;5017144;28;20050;-72
2022/05/14 07:16:38;;;;;;;33.13;7.10;;;13.10;99.90;;;;;;5016397;28;20357;-72
2022/05/14 07:19:06;;;;;;;35.17;7.53;;;13.20;99.90;;;;;;5015552;28;20483;-72
2022/05/14 07:21:36;;;;;;;33.85;7.20;;;13.20;99.90;;;;;;4999191;28;20492;-72
2022/05/14 07:24:06;;;;;;;31.00;7.28;;;13.30;99.90;;;;;;5015187;28;20038;-72
2022/05/14 07:26:35;;;;;;;30.13;7.07;;;13.30;99.90;;;;;;5016147;28;20056;-72
2022/05/14 07:29:09;;;;;;;28.77;7.10;;;13.40;99.90;;;;;;5016082;28;20450;-72
2022/05/14 07:31:38;;;;;;;32.75;7.10;;;13.40;99.90;;;;;;5015089;28;20050;-72
2022/05/14 07:34:07;;;;;;;30.05;7.05;;;13.40;99.90;;;;;;5016075;28;20057;-72
2022/05/14 07:36:56;;;;;;;27.48;6.80;;;13.40;99.90;;;;;;5016005;28;20073;-72
2022/05/14 07:39:29;;;;;;;35.15;7.57;;;13.50;99.90;;;;;;5015079;28;20065;-72
2022/05/14 07:42:00;;;;;;;34.05;7.07;;;13.50;99.90;;;;;;5016086;28;20057;-72
2022/05/14 07:44:34;;;;;;;27.45;6.65;;;13.50;99.90;;;;;;5015505;28;20042;-72
2022/05/14 07:47:02;;;;;;;31.63;6.65;;;13.50;99.90;;;;;;5015967;28;20042;-72
2022/05/14 07:49:30;;;;;;;;;;;13.50;99.90;;;;;;4999381;28;20050;-72
2022/05/14 07:51:57;;;;;;;32.05;6.72;;;13.40;99.90;;;;;;4998063;28;19925;-72
2022/05/14 07:54:25;;;;;;;31.13;7.13;;;13.40;99.90;;;;;;5015794;28;20062;-72
2022/05/14 07:56:55;;;;;;;28.52;6.97;;;13.30;99.90;;;;;;5015918;28;20053;-72
2022/05/14 07:59:22;;;;;;;33.50;6.80;;;13.30;99.90;;;;;;5014629;28;20054;-72
2022/05/14 08:01:50;;;;;;;37.83;7.07;;;13.40;99.90;;;;;;5015012;28;20355;-72
2022/05/14 08:04:17;;;;;;;35.35;7.03;;;13.40;99.90;;;;;;5014448;28;20050;-72
2022/05/14 08:06:45;;;;;;;29.67;6.68;;;13.40;99.90;;;;;;5015282;28;20074;-72
2022/05/14 08:09:12;;;;;;;23.85;6.45;;;13.40;99.90;;;;;;5015289;28;20049;-72
2022/05/14 08:11:40;;;;;;;27.67;6.38;;;13.50;99.90;;;;;;5014216;28;20052;-72
2022/05/14 08:14:08;;;;;;;31.35;6.38;;;13.50;99.90;;;;;;5015212;28;20129;-79
2022/05/14 08:16:35;;;;;;;24.25;6.03;;;13.70;99.90;;;;;;4997837;28;20050;-73
2022/05/14 08:19:03;;;;;;;29.83;6.88;;;13.70;99.90;;;;;;5014232;28;20357;-72
2022/05/14 08:24:35;;;;;;;33.28;6.53;;;13.90;99.90;;;;;;5013182;28;20385;-72
2022/05/14 08:27:09;;;;;;;28.50;6.40;;;13.90;99.90;;;;;;5014864;28;20042;-71
2022/05/14 08:29:45;;;;;;;29.42;5.97;;;14.00;99.90;;;;;;5014549;28;20373;-72
2022/05/14 08:32:12;;;;;;;29.58;6.18;;;14.00;99.90;;;;;;5013708;28;20076;-72
2022/05/14 08:34:40;;;;;;;29.95;5.57;;;14.10;99.90;;;;;;5014932;28;20046;-72
2022/05/14 08:37:07;;;;;;;30.77;5.63;;;14.20;99.90;;;;;;5015098;28;20038;-73
2022/05/14 08:39:36;;;;;;;29.65;5.65;;;14.30;99.90;;;;;;5013653;28;20432;-73
2022/05/14 08:42:09;;;;;;;28.02;5.90;;;14.40;99.90;;;;;;5014829;28;20042;-75
2022/05/14 08:44:45;;;;;;;23.98;5.55;;;14.40;99.90;;;;;;5014203;28;20042;-75
2022/05/14 08:47:27;;;;;;;22.48;5.30;;;14.40;99.90;;;;;;4997961;28;20057;-74
2022/05/14 08:49:56;;;;;;;29.58;5.30;;;14.50;99.90;;;;;;5010706;28;20045;-72
2022/05/14 08:52:30;;;;;;;25.40;5.53;;;14.50;99.90;;;;;;5008009;28;20054;-71
2022/05/14 08:55:00;;;;;;;25.88;5.40;;;14.60;99.90;;;;;;4998243;28;20045;-73
2022/05/14 08:57:56;;;;;;;29.60;5.60;;;14.80;99.90;;;;;;5012690;28;20472;-73
2022/05/14 09:00:26;;;;;;;25.85;5.07;;;14.90;99.90;;;;;;4981379;28;20057;-73
2022/05/14 09:02:54;;;;;;;30.98;5.57;;;15.00;99.90;;;;;;5015005;28;20450;-73
2022/05/14 09:05:32;;;;;;;24.23;5.03;;;15.10;99.90;;;;;;5013615;28;20049;-73
2022/05/14 09:08:01;;;;;;;24.42;4.88;;;15.10;99.90;;;;;;5014758;28;20373;-73
2022/05/14 09:10:36;;;;;;;22.60;5.15;;;15.10;99.90;;;;;;5014701;28;20050;-73
2022/05/14 09:13:14;;;;;;;25.98;4.82;;;15.00;99.90;;;;;;5014213;28;20053;-73
2022/05/14 09:15:51;;;;;;;30.70;4.78;;;15.10;99.90;;;;;;5014451;28;20057;-73
2022/05/14 09:18:30;;;;;;;18.27;4.65;;;15.20;99.90;;;;;;5013609;28;20483;-73
2022/05/14 09:21:08;;;;;;;20.98;4.63;;;15.30;99.90;;;;;;5014527;28;20389;-74
2022/05/14 09:23:39;;;;;;;29.30;4.80;;;15.40;99.90;;;;;;5014417;28;20049;-75
2022/05/14 09:26:22;;;;;;;22.70;4.50;;;15.50;99.90;;;;;;4996557;28;20130;-76
2022/05/14 09:28:57;;;;;;;22.55;5.35;;;15.50;99.90;;;;;;5015082;28;20053;-76
2022/05/14 09:31:39;;;;;;;20.70;5.07;;;15.70;99.90;;;;;;4996862;28;20053;-75
2022/05/14 09:34:13;;;;;;;22.55;4.10;;;15.80;99.90;;;;;;5014500;28;20053;-75
2022/05/14 09:36:44;;;;;;;14.02;3.75;;;15.90;99.90;;;;;;5019023;28;20480;-75
2022/05/14 09:39:23;;;;;;;23.15;4.80;;;15.90;99.90;;;;;;4999415;28;20057;-76
2022/05/14 09:42:01;;;;;;;17.08;3.90;;;16.10;99.90;;;;;;5016587;28;20049;-76
2022/05/14 09:44:44;;;;;;;20.65;4.10;;;16.20;99.90;;;;;;5016230;28;20049;-76
2022/05/14 09:47:16;;;;;;;17.25;3.83;;;16.40;99.90;;;;;;5017430;28;20053;-76
2022/05/14 09:49:55;;;;;;;18.92;4.15;;;16.50;99.90;;;;;;5017132;28;20473;-76
2022/05/14 09:52:26;;;;;;;18.70;4.13;;;16.60;99.90;;;;;;5016004;28;20045;-76
2022/05/14 09:54:53;;;;;;;17.90;4.20;;;16.80;99.90;;;;;;5017687;28;20046;-77
2022/05/14 09:57:30;;;;;;;24.17;4.32;;;16.80;99.90;;;;;;5000194;28;20053;-75
2022/05/14 10:00:01;;;;;;;25.25;4.32;;;16.90;99.90;;;;;;5017895;28;20042;-75
2022/05/14 10:02:44;;;;;;;20.05;4.30;;;16.90;99.90;;;;;;5017759;28;20046;-78
2022/05/14 10:05:26;;;;;;;15.20;3.28;;;17.00;99.90;;;;;;5016699;28;20050;-77
2022/05/14 10:08:00;;;;;;;17.27;4.00;;;16.90;99.90;;;;;;5017621;28;20049;-76
2022/05/14 10:10:40;;;;;;;18.00;4.10;;;17.00;99.90;;;;;;5017911;28;20061;-77
2022/05/14 10:13:15;;;;;;;22.40;4.40;;;17.10;99.90;;;;;;5000636;28;20049;-78
2022/05/14 10:15:56;;;;;;;16.67;4.03;;;17.10;99.90;;;;;;5017483;28;20050;-75
2022/05/14 10:18:42;;;;;;;20.60;4.38;;;17.10;99.90;;;;;;5016868;28;20050;-77
2022/05/14 10:21:37;;;;;;;21.33;4.60;;;17.10;99.90;;;;;;5017437;28;20062;-75
2022/05/14 10:27:25;;;;;;;19.67;4.85;;;17.20;99.90;;;;;;5017486;28;20038;-75
2022/05/14 10:30:14;;;;;;;20.25;4.60;;;17.30;99.90;;;;;;5017143;28;20379;-75
2022/05/14 10:32:44;;;;;;;21.42;4.88;;;17.50;99.90;;;;;;5016262;28;20046;-75
2022/05/14 10:35:21;;;;;;;18.63;4.32;;;17.50;99.90;;;;;;5016656;28;20065;-77
2022/05/14 10:37:53;;;;;;;16.08;3.92;;;17.60;99.90;;;;;;5016222;28;20042;-75
2022/05/14 10:40:38;;;;;;;15.75;3.67;;;17.60;99.90;;;;;;5016935;28;20045;-75
2022/05/14 10:43:29;;;;;;;19.70;4.28;;;17.80;99.90;;;;;;5016876;28;20057;-75
2022/05/14 10:45:59;;;;;;;21.45;4.20;;;17.90;99.90;;;;;;5015433;28;20469;-75
2022/05/14 10:48:39;;;;;;;15.85;4.03;;;18.00;99.90;;;;;;5017259;28;20049;-77
2022/05/14 10:51:10;;;;;;;13.60;3.90;;;18.10;99.90;;;;;;5016373;28;20052;-75
2022/05/14 10:53:42;;;;;;;14.55;4.30;;;18.20;99.90;;;;;;5017018;28;20454;-76
2022/05/14 10:56:33;;;;;;;17.35;4.05;;;18.40;99.90;;;;;;5016858;28;20053;-85
2022/05/14 10:59:12;;;;;;;16.58;3.88;;;18.50;99.90;;;;;;4982461;28;20064;-77
2022/05/14 11:01:59;;;;;;;18.17;3.85;;;18.60;99.90;;;;;;5017291;28;20054;-75
2022/05/14 11:04:38;;;;;;;15.10;4.00;;;18.70;99.90;;;;;;5015472;28;20050;-74
2022/05/14 11:07:10;;;;;;;15.95;3.90;;;18.70;99.90;;;;;;5016838;28;20061;-76
2022/05/14 11:09:45;;;;;;;17.98;4.30;;;18.70;99.90;;;;;;5016372;28;20046;-76
2022/05/14 11:12:18;;;;;;;12.65;3.65;;;18.70;99.90;;;;;;5015508;28;20041;-75
2022/05/14 11:14:55;;;;;;;17.42;3.90;;;18.80;99.30;;;;;;5016566;28;20381;-75
2022/05/14 11:17:27;;;;;;;14.23;4.28;;;18.80;99.30;;;;;;5015474;28;20049;-77
2022/05/14 11:20:17;;;;;;;15.18;3.90;;;18.80;99.90;;;;;;4999375;28;20046;-77
2022/05/14 11:22:49;;;;;;;13.57;3.80;;;18.80;98.90;;;;;;5016626;28;20049;-80
2022/05/14 11:25:16;;;;;;;17.02;3.83;;;18.80;98.90;;;;;;5015107;28;20057;-81
2022/05/14 11:28:01;;;;;;;15.90;4.05;;;18.80;99.40;;;;;;5015928;28;20057;-81
2022/05/14 11:30:47;;;;;;;14.90;3.88;;;18.80;98.50;;;;;;5016711;28;20057;-83
2022/05/14 11:33:27;;;;;;;14.63;3.60;;;19.00;98.90;;;;;;5016555;28;20041;-87
2022/05/14 11:35:59;;;;;;;15.15;3.80;;;19.10;98.30;;;;;;4999595;28;20050;-85
2022/05/14 11:38:27;;;;;;;20.15;4.07;;;19.20;98.60;;;;;;4998613;28;20042;-86
2022/05/14 11:41:06;;;;;;;12.98;3.75;;;19.20;98.20;;;;;;4999201;28;20365;-79
2022/05/14 11:43:43;;;;;;;12.52;3.30;;;19.20;98.10;;;;;;5016073;28;20445;-80
2022/05/14 11:46:28;;;;;;;15.48;4.13;;;19.20;98.60;;;;;;5015468;28;20042;-78
2022/05/14 11:49:22;;;;;;;14.40;3.70;;;19.20;98.40;;;;;;5015277;28;20476;-80
2022/05/14 11:52:23;;;;;;;16.63;4.25;;;19.20;97.80;;;;;;4997618;28;20473;-80
2022/05/14 11:55:04;;;;;;;13.10;3.47;;;19.20;97.60;;;;;;5014553;28;20060;-76
2022/05/14 11:57:37;;;;;;;12.80;3.60;;;19.20;96.80;;;;;;5014652;28;20045;-76
2022/05/14 12:00:17;;;;;;;14.88;3.67;;;19.30;97.30;;;;;;5015652;28;20455;-75
2022/05/14 12:03:01;;;;;;;18.38;3.97;;;19.40;97.00;;;;;;5015280;28;20050;-76
2022/05/14 12:05:36;;;;;;;16.15;3.60;;;19.40;96.80;;;;;;5014425;28;20052;-77
2022/05/14 12:08:23;;;;;;;16.50;3.35;;;19.50;97.10;;;;;;5015287;28;20050;-77
2022/05/14 12:10:52;;;;;;;16.75;4.07;;;19.60;97.20;;;;;;5014322;28;20073;-77
2022/05/14 12:13:48;;;;;;;16.05;4.15;;;19.70;97.40;;;;;;5015216;28;20050;-76
2022/05/14 12:16:16;;;;;;;13.95;3.78;;;19.80;96.00;;;;;;5015022;28;20354;-77
2022/05/14 12:18:44;;;;;;;15.65;4.35;;;19.80;96.50;;;;;;4996873;28;20046;-77
2022/05/14 12:21:16;;;;;;;12.88;4.10;;;19.80;96.70;;;;;;5015132;28;20049;-75
2022/05/14 12:23:48;;;;;;;18.42;4.30;;;19.90;96.80;;;;;;5014909;28;20049;-77
2022/05/14 12:26:30;;;;;;;13.40;3.95;;;20.00;97.00;;;;;;5013475;28;20451;-76
2022/05/14 12:29:00;;;;;;;12.52;3.50;;;20.00;96.30;;;;;;5014470;28;20053;-76
2022/05/14 12:34:21;;;;;;;15.00;4.00;;;20.20;96.60;;;;;;5014747;28;20066;-76
2022/05/14 12:36:53;;;;;;;15.68;4.18;;;20.20;96.50;;;;;;5014715;28;20520;-76
2022/05/14 12:39:24;;;;;;;15.13;4.15;;;20.30;96.40;;;;;;5013591;28;20061;-78
2022/05/14 12:41:58;;;;;;;13.80;3.97;;;20.40;96.40;;;;;;5014914;28;20052;-76
2022/05/14 12:44:38;;;;;;;21.58;6.68;;;20.60;96.40;;;;;;5013823;28;20052;-76
2022/05/14 12:47:06;;;;;;;16.35;3.92;;;20.70;95.90;;;;;;5015089;28;20042;-76
2022/05/14 12:49:43;;;;;;;16.15;4.55;;;20.80;96.00;;;;;;5014867;28;20041;-78
2022/05/14 12:52:14;;;;;;;25.02;4.60;;;20.90;95.20;;;;;;5013787;28;20046;-78
2022/05/14 12:54:51;;;;;;;18.58;4.05;;;20.90;95.90;;;;;;5015141;28;20045;-77
2022/05/14 12:57:21;;;;;;;15.35;3.63;;;21.00;95.50;;;;;;4997815;28;20046;-78
2022/05/14 12:59:49;;;;;;;16.77;4.75;;;21.00;95.40;;;;;;5014661;28;20061;-77
2022/05/14 13:02:33;;;;;;;15.70;3.90;;;21.10;95.30;;;;;;5015073;28;20042;-77
2022/05/14 13:05:16;;;;;;;12.70;4.35;;;21.20;95.00;;;;;;5014050;28;20061;-78
2022/05/14 13:08:10;;;;;;;15.57;3.78;;;21.20;94.80;;;;;;4997317;28;20156;-78
2022/05/14 13:10:44;;;;;;;20.65;4.15;;;21.40;94.10;;;;;;5017445;28;20049;-78
2022/05/14 13:13:11;;;;;;;13.90;4.18;;;21.50;94.20;;;;;;5018935;28;20046;-76
2022/05/14 13:15:52;;;;;;;15.77;3.75;;;21.60;93.80;;;;;;4985308;28;20053;-78
2022/05/14 13:18:33;;;;;;;11.68;3.50;;;21.70;92.70;;;;;;5017181;28;20053;-77
2022/05/14 13:21:08;;;;;;;14.15;3.60;;;22.00;93.50;;;;;;5018428;28;20042;-77
2022/05/14 13:23:36;;;;;;;15.32;3.83;;;22.40;92.50;;;;;;5001455;28;20377;-78
2022/05/14 13:26:22;;;;;;;13.20;3.75;;;22.90;92.10;;;;;;5016716;28;20058;-78
2022/05/14 13:28:49;;;;;;;15.18;3.90;;;23.50;91.40;;;;;;5001281;28;20050;-76
2022/05/14 13:31:26;;;;;;;16.92;4.38;;;24.20;90.70;;;;;;4999773;28;20048;-78